Time;durP1;ratioP1;P1;durP2;ratioP2;P2;SDS_P1;SDS_P2;PMS_P1;PMS_P2;Temp;Humidity;BMP_temperature;BMP_pressure;BME280_temperature;BME280_humidity;BME280_pressure;Samples;Min_cycle;Max_cycle;Signal;HPM_P1;HPM_P2
2023/01/29 00:02:19;;;;;;;45.63;27.87;;;0.20;92.20;;;;;;6215229;28;20285;-66
2023/01/29 00:05:19;;;;;;;43.33;26.13;;;0.20;92.30;;;;;;6223742;28;20188;-66
2023/01/29 00:08:20;;;;;;;41.10;26.20;;;0.20;92.70;;;;;;6246146;28;20187;-66
2023/01/29 00:11:22;;;;;;;43.10;26.63;;;0.20;92.80;;;;;;6214901;28;20198;-66
2023/01/29 00:14:25;;;;;;;46.40;27.57;;;0.20;93.00;;;;;;6244094;28;20218;-66
2023/01/29 00:17:27;;;;;;;38.80;24.90;;;0.20;92.80;;;;;;6243817;28;20219;-66
2023/01/29 00:20:27;;;;;;;39.53;24.87;;;0.20;93.00;;;;;;6219805;28;20195;-67
2023/01/29 00:23:28;;;;;;;37.20;23.37;;;0.20;93.10;;;;;;6207398;28;20194;-67
2023/01/29 00:26:29;;;;;;;37.73;24.53;;;0.20;92.30;;;;;;6203951;28;20191;-67
2023/01/29 00:29:29;;;;;;;40.60;24.67;;;0.20;92.70;;;;;;6223254;28;20186;-67
2023/01/29 00:32:31;;;;;;;37.47;24.27;;;0.20;92.70;;;;;;6209692;28;20226;-67
2023/01/29 00:35:32;;;;;;;34.20;22.93;;;0.20;92.80;;;;;;6206993;28;20207;-67
2023/01/29 00:38:33;;;;;;;39.63;25.50;;;0.30;92.60;;;;;;6241869;28;20291;-67
2023/01/29 00:44:56;;;;;;;41.10;25.57;;;0.20;92.90;;;;;;6224205;28;20195;-67
2023/01/29 00:47:57;;;;;;;35.03;24.67;;;0.20;92.90;;;;;;6207737;28;20203;-64
2023/01/29 00:50:57;;;;;;;36.33;22.20;;;0.20;93.00;;;;;;6205862;28;20233;-64
2023/01/29 00:53:58;;;;;;;35.13;23.33;;;0.20;92.50;;;;;;6210226;28;20278;-65
2023/01/29 00:57:00;;;;;;;31.67;21.47;;;0.20;92.80;;;;;;6223563;28;20202;-65
2023/01/29 01:00:02;;;;;;;33.63;21.33;;;0.20;92.80;;;;;;6227712;28;20226;-65
2023/01/29 01:03:06;;;;;;;35.90;23.17;;;0.20;92.90;;;;;;6212881;28;20194;-65
2023/01/29 01:06:09;;;;;;;30.97;20.80;;;0.20;92.60;;;;;;6213378;28;20219;-65
2023/01/29 01:12:40;;;;;;;34.97;23.50;;;0.20;92.80;;;;;;6186636;28;20201;-65
2023/01/29 01:15:40;;;;;;;29.80;20.80;;;0.20;92.80;;;;;;6207360;28;20221;-65
2023/01/29 01:18:41;;;;;;;36.20;23.73;;;0.20;92.40;;;;;;6222699;28;20192;-65
2023/01/29 01:21:44;;;;;;;32.37;22.93;;;0.20;92.00;;;;;;6240672;28;20212;-65
2023/01/29 01:24:45;;;;;;;28.37;19.60;;;0.10;92.10;;;;;;6241437;28;20202;-65
2023/01/29 01:27:46;;;;;;;30.93;19.13;;;0.10;92.30;;;;;;6211843;28;20225;-65
2023/01/29 01:30:47;;;;;;;27.63;18.83;;;0.10;92.40;;;;;;6211022;28;20246;-65
2023/01/29 01:33:47;;;;;;;32.93;22.23;;;0.00;92.60;;;;;;6211895;28;20778;-65
2023/01/29 01:36:48;;;;;;;32.20;21.87;;;0.10;92.10;;;;;;6220238;28;20198;-65
2023/01/29 01:39:49;;;;;;;31.67;21.67;;;0.00;92.30;;;;;;6230795;28;20193;-65
2023/01/29 01:42:55;;;;;;;35.73;23.13;;;0.10;92.30;;;;;;6221928;28;20194;-65
2023/01/29 01:45:56;;;;;;;30.20;18.93;;;0.00;92.50;;;;;;6231025;28;20183;-65
2023/01/29 01:49:02;;;;;;;31.13;21.70;;;0.00;92.70;;;;;;6245262;28;20236;-65
2023/01/29 01:52:03;;;;;;;36.47;23.70;;;0.00;92.50;;;;;;6260247;28;20206;-66
2023/01/29 01:55:05;;;;;;;30.00;20.33;;;0.00;92.70;;;;;;6215130;28;20227;-66
2023/01/29 01:58:11;;;;;;;36.97;23.57;;;0.00;92.50;;;;;;6210568;28;20190;-66
2023/01/29 02:01:12;;;;;;;31.87;21.77;;;0.00;92.20;;;;;;6217359;28;20201;-65
2023/01/29 02:11:01;;;;;;;29.10;19.70;;;0.00;92.50;;;;;;6218026;28;20183;-65
2023/01/29 02:14:02;;;;;;;34.83;24.23;;;0.00;92.60;;;;;;6209556;28;20222;-65
2023/01/29 02:17:04;;;;;;;29.53;21.23;;;0.00;92.90;;;;;;6250975;28;20225;-65
2023/01/29 02:20:04;;;;;;;36.40;23.70;;;0.00;92.80;;;;;;6219114;28;20183;-66
2023/01/29 02:23:26;;;;;;;30.67;22.00;;;0.00;92.60;;;;;;6260397;28;20191;-66
2023/01/29 02:27:12;;;;;;;36.60;22.77;;;0.00;92.80;;;;;;6224109;28;20188;-65
2023/01/29 02:30:24;;;;;;;30.87;20.50;;;0.00;92.70;;;;;;6240678;28;20203;-65
2023/01/29 02:34:00;;;;;;;33.43;21.50;;;0.00;93.00;;;;;;6226232;28;20190;-65
2023/01/29 02:37:09;;;;;;;34.17;23.87;;;0.00;92.70;;;;;;6179681;28;20195;-65
2023/01/29 02:40:33;;;;;;;32.90;22.30;;;0.00;92.50;;;;;;6229608;28;20231;-65
2023/01/29 02:43:44;;;;;;;34.07;22.00;;;0.00;92.80;;;;;;6223917;28;20210;-66
2023/01/29 02:46:50;;;;;;;31.43;20.60;;;0.00;92.50;;;;;;6237268;28;20194;-65
2023/01/29 02:50:29;;;;;;;30.20;19.83;;;0.00;92.60;;;;;;6217830;28;20218;-65
2023/01/29 02:53:43;;;;;;;36.17;23.00;;;0.00;92.80;;;;;;6222500;28;20290;-66
2023/01/29 02:56:46;;;;;;;28.97;20.33;;;0.00;92.80;;;;;;6232486;28;20191;-65
2023/01/29 03:00:13;;;;;;;34.27;21.27;;;0.00;92.50;;;;;;6218479;28;20214;-65
2023/01/29 03:03:22;;;;;;;31.47;21.20;;;0.00;92.50;;;;;;6216849;28;20227;-65
2023/01/29 03:06:27;;;;;;;34.50;21.57;;;0.00;92.60;;;;;;6259851;28;20191;-66
2023/01/29 03:09:39;;;;;;;34.73;22.23;;;0.00;92.70;;;;;;6226231;28;20187;-65
2023/01/29 03:12:41;;;;;;;36.27;22.10;;;0.00;92.10;;;;;;6236328;28;20195;-65
2023/01/29 03:15:50;;;;;;;32.73;22.77;;;0.00;92.40;;;;;;6222091;28;20313;-66
2023/01/29 03:19:00;;;;;;;31.73;21.57;;;0.00;92.00;;;;;;6253473;28;20224;-66
2023/01/29 03:22:04;;;;;;;31.07;19.77;;;0.00;92.20;;;;;;6225373;28;20211;-65
2023/01/29 03:32:07;;;;;;;31.90;20.60;;;0.00;92.10;;;;;;6225834;28;20287;-66
2023/01/29 03:35:13;;;;;;;28.33;19.50;;;0.00;92.30;;;;;;6212988;28;20245;-66
2023/01/29 03:38:14;;;;;;;30.23;20.50;;;0.00;92.30;;;;;;6237481;28;20187;-65
2023/01/29 03:41:30;;;;;;;28.60;19.10;;;0.00;92.10;;;;;;6207078;28;20186;-65
2023/01/29 03:44:35;;;;;;;33.00;21.40;;;0.00;92.40;;;;;;6222629;28;20261;-65
2023/01/29 03:47:53;;;;;;;29.57;20.80;;;0.00;92.60;;;;;;6251346;28;20238;-65
2023/01/29 03:51:00;;;;;;;26.13;18.23;;;0.00;92.50;;;;;;6236786;28;20251;-65
2023/01/29 03:54:20;;;;;;;29.97;21.17;;;0.00;92.30;;;;;;6221576;28;20370;-65
2023/01/29 03:57:24;;;;;;;29.67;20.07;;;0.00;91.70;;;;;;6224035;28;20202;-65
2023/01/29 04:00:50;;;;;;;34.67;22.43;;;-0.10;92.00;;;;;;6242649;28;20191;-65
2023/01/29 04:04:12;;;;;;;31.53;21.27;;;-0.10;91.70;;;;;;6223735;28;20192;-65
2023/01/29 04:07:17;;;;;;;31.30;21.53;;;-0.10;92.00;;;;;;6238684;28;20183;-65
2023/01/29 04:10:23;;;;;;;29.80;19.20;;;-0.10;91.90;;;;;;6234015;28;20192;-65
2023/01/29 04:13:25;;;;;;;30.03;20.83;;;-0.10;92.00;;;;;;6238446;28;20222;-65
2023/01/29 04:16:32;;;;;;;32.70;21.80;;;-0.20;92.10;;;;;;6240397;28;20219;-65
2023/01/29 04:19:33;;;;;;;27.17;20.17;;;-0.20;92.00;;;;;;6225398;28;20187;-65
2023/01/29 04:22:37;;;;;;;35.73;22.03;;;-0.20;92.30;;;;;;6207650;28;20266;-65
2023/01/29 04:25:45;;;;;;;33.03;20.90;;;-0.20;92.40;;;;;;6225542;28;20206;-65
2023/01/29 04:29:07;;;;;;;32.37;21.43;;;-0.20;92.30;;;;;;6229500;28;20233;-65
2023/01/29 04:32:22;;;;;;;27.77;19.93;;;-0.20;92.50;;;;;;6200854;28;20285;-65
2023/01/29 04:35:36;;;;;;;30.27;19.93;;;-0.20;92.30;;;;;;6247009;28;20218;-65
2023/01/29 04:39:16;;;;;;;29.53;20.57;;;-0.20;92.20;;;;;;6221259;28;20275;-65
2023/01/29 04:42:30;;;;;;;29.77;19.60;;;-0.20;92.10;;;;;;6230568;28;20214;-65
2023/01/29 04:45:52;;;;;;;32.47;21.97;;;-0.20;92.00;;;;;;6222680;28;20195;-65
2023/01/29 04:49:11;;;;;;;35.30;22.50;;;-0.20;92.40;;;;;;6224576;28;20199;-65
2023/01/29 04:52:35;;;;;;;30.07;20.73;;;-0.20;92.00;;;;;;6242195;28;20230;-65
2023/01/29 04:55:42;;;;;;;26.93;17.93;;;-0.20;91.70;;;;;;6219338;28;20218;-65
2023/01/29 04:58:50;;;;;;;30.67;19.83;;;-0.20;92.20;;;;;;6229613;28;20184;-66
2023/01/29 05:01:51;;;;;;;32.03;18.80;;;-0.30;91.80;;;;;;6218383;28;20181;-66
2023/01/29 05:04:53;;;;;;;30.97;20.33;;;-0.30;91.80;;;;;;6223002;28;20242;-65
2023/01/29 05:07:56;;;;;;;28.50;19.10;;;-0.30;91.90;;;;;;6212540;28;20283;-65
2023/01/29 05:10:58;;;;;;;26.93;18.47;;;-0.30;92.10;;;;;;6245130;28;20231;-65
2023/01/29 05:14:02;;;;;;;32.07;21.27;;;-0.30;91.80;;;;;;6233203;28;20211;-65
2023/01/29 05:17:11;;;;;;;31.10;20.57;;;-0.30;92.10;;;;;;6231343;28;20213;-66
2023/01/29 05:20:12;;;;;;;29.40;20.40;;;-0.30;92.00;;;;;;6216136;28;20194;-65
2023/01/29 05:23:21;;;;;;;27.27;17.93;;;-0.40;91.30;;;;;;6218978;28;20183;-65
2023/01/29 05:29:46;;;;;;;32.60;19.67;;;-0.40;92.10;;;;;;6234377;28;20192;-65
2023/01/29 05:32:46;;;;;;;27.80;18.70;;;-0.40;92.20;;;;;;6243278;28;20210;-65
2023/01/29 05:35:48;;;;;;;32.13;21.20;;;-0.40;92.20;;;;;;6247844;28;20202;-65
2023/01/29 05:38:49;;;;;;;30.63;19.37;;;-0.50;92.00;;;;;;6202061;28;20195;-66
2023/01/29 05:41:50;;;;;;;27.70;17.77;;;-0.40;92.40;;;;;;6209741;28;20186;-65
2023/01/29 05:44:51;;;;;;;23.80;16.17;;;-0.50;92.30;;;;;;6222537;28;20191;-66
2023/01/29 05:47:56;;;;;;;31.60;18.77;;;-0.40;92.30;;;;;;6220722;28;20285;-65
2023/01/29 05:51:01;;;;;;;26.00;18.20;;;-0.40;92.40;;;;;;6210095;28;20184;-66
2023/01/29 05:54:02;;;;;;;24.67;17.43;;;-0.40;91.80;;;;;;6263894;28;20242;-66
2023/01/29 05:57:02;;;;;;;27.97;17.13;;;-0.40;91.80;;;;;;6207262;28;20187;-64
2023/01/29 06:00:04;;;;;;;24.47;16.03;;;-0.50;92.10;;;;;;6212925;28;20198;-64
2023/01/29 06:03:05;;;;;;;27.37;18.83;;;-0.40;92.10;;;;;;6214421;28;20190;-64
2023/01/29 06:06:06;;;;;;;25.30;17.43;;;-0.40;92.40;;;;;;6217476;28;20199;-64
2023/01/29 06:09:08;;;;;;;27.83;18.50;;;-0.40;91.90;;;;;;6219328;28;20258;-64
2023/01/29 06:12:09;;;;;;;30.67;20.23;;;-0.40;92.00;;;;;;6228455;28;20203;-64
2023/01/29 06:15:11;;;;;;;26.27;19.03;;;-0.40;92.00;;;;;;6209910;28;20214;-64
2023/01/29 06:18:12;;;;;;;26.17;17.37;;;-0.40;92.10;;;;;;6232349;28;20183;-64
2023/01/29 06:21:13;;;;;;;22.47;16.27;;;-0.40;91.60;;;;;;6232711;28;20208;-64
2023/01/29 06:24:13;;;;;;;25.43;18.17;;;-0.40;91.70;;;;;;6210614;28;20240;-65
2023/01/29 06:27:14;;;;;;;22.77;15.80;;;-0.40;92.00;;;;;;6227201;28;20221;-61
2023/01/29 06:30:15;;;;;;;23.30;15.40;;;-0.40;91.70;;;;;;6225903;28;20242;-61
2023/01/29 06:33:16;;;;;;;23.10;15.97;;;-0.40;91.70;;;;;;6208233;28;20217;-62
2023/01/29 06:36:16;;;;;;;24.73;16.33;;;-0.40;91.30;;;;;;6209653;28;20222;-63
2023/01/29 06:39:17;;;;;;;23.23;15.73;;;-0.40;91.70;;;;;;6227978;28;20183;-64
2023/01/29 06:42:19;;;;;;;23.97;16.63;;;-0.40;91.00;;;;;;6215752;28;20194;-63
2023/01/29 06:45:20;;;;;;;25.27;15.13;;;-0.40;90.50;;;;;;6212662;28;20191;-64
2023/01/29 06:48:21;;;;;;;27.33;17.70;;;-0.40;90.10;;;;;;6220254;28;20202;-64
2023/01/29 06:51:22;;;;;;;23.93;16.20;;;-0.50;90.10;;;;;;6233630;28;20197;-63
2023/01/29 06:54:23;;;;;;;24.67;16.47;;;-0.50;90.10;;;;;;6217620;28;20238;-63
2023/01/29 06:57:23;;;;;;;28.60;17.80;;;-0.60;90.40;;;;;;6212448;28;20241;-63
2023/01/29 07:00:24;;;;;;;29.60;19.13;;;-0.60;90.40;;;;;;6204453;28;20195;-64
2023/01/29 07:03:25;;;;;;;26.53;17.20;;;-0.60;90.30;;;;;;6215006;28;20705;-64
2023/01/29 07:06:30;;;;;;;27.20;17.90;;;-0.60;90.80;;;;;;6234920;28;20202;-64
2023/01/29 07:09:30;;;;;;;27.60;17.00;;;-0.60;91.10;;;;;;6224937;28;20183;-64
2023/01/29 07:12:31;;;;;;;27.80;17.13;;;-0.60;90.70;;;;;;6209816;28;20183;-64
2023/01/29 07:15:32;;;;;;;27.23;17.73;;;-0.50;91.00;;;;;;6210197;28;20210;-65
2023/01/29 07:18:32;;;;;;;31.90;18.23;;;-0.50;91.00;;;;;;6209807;28;20270;-63
2023/01/29 07:21:33;;;;;;;23.83;16.07;;;-0.50;90.40;;;;;;6212669;28;20182;-63
2023/01/29 07:24:34;;;;;;;27.17;17.60;;;-0.50;90.50;;;;;;6226726;28;20246;-64
2023/01/29 07:27:34;;;;;;;26.33;17.40;;;-0.50;90.70;;;;;;6242001;28;20541;-63
2023/01/29 07:30:35;;;;;;;28.17;16.83;;;-0.50;90.30;;;;;;6205414;28;20218;-64
2023/01/29 07:33:36;;;;;;;28.53;18.07;;;-0.40;90.10;;;;;;6214691;28;20218;-63
2023/01/29 07:36:37;;;;;;;27.37;16.90;;;-0.40;90.40;;;;;;6214400;28;20222;-64
2023/01/29 07:39:37;;;;;;;25.13;16.17;;;-0.40;89.90;;;;;;6244515;28;20183;-63
2023/01/29 07:42:38;;;;;;;22.37;15.53;;;-0.40;89.80;;;;;;6213133;28;20197;-64
2023/01/29 07:45:39;;;;;;;27.03;17.30;;;-0.30;89.80;;;;;;6208260;28;20205;-63
2023/01/29 07:48:40;;;;;;;24.13;16.77;;;-0.30;89.80;;;;;;6205482;28;20199;-63
2023/01/29 07:51:41;;;;;;;31.73;18.13;;;-0.40;88.50;;;;;;6217916;28;20196;-64
2023/01/29 07:54:41;;;;;;;28.63;19.00;;;-0.40;89.40;;;;;;6241815;28;20233;-64
2023/01/29 07:57:43;;;;;;;24.53;15.23;;;-0.40;89.40;;;;;;6215331;28;20186;-63
2023/01/29 08:00:44;;;;;;;25.77;16.83;;;-0.30;89.70;;;;;;6220534;28;20573;-64
2023/01/29 08:03:45;;;;;;;26.73;17.90;;;-0.30;88.80;;;;;;6230447;28;20194;-63
2023/01/29 08:06:45;;;;;;;24.37;16.60;;;-0.30;89.00;;;;;;6208709;28;20195;-63
2023/01/29 08:09:46;;;;;;;22.67;14.23;;;-0.30;87.90;;;;;;6210285;28;20208;-64
2023/01/29 08:12:47;;;;;;;22.10;15.93;;;-0.30;88.50;;;;;;6206127;28;20194;-64
2023/01/29 08:15:47;;;;;;;25.60;15.60;;;-0.30;88.10;;;;;;6204773;28;20666;-63
2023/01/29 08:18:48;;;;;;;24.90;16.63;;;-0.20;88.70;;;;;;6241460;28;20188;-64
2023/01/29 08:21:49;;;;;;;21.97;13.97;;;-0.20;88.80;;;;;;6209857;28;20189;-64
2023/01/29 08:24:49;;;;;;;21.70;14.73;;;-0.20;88.00;;;;;;6212393;28;20225;-64
2023/01/29 08:27:50;;;;;;;17.47;11.23;;;-0.10;89.10;;;;;;6221690;28;20194;-64
2023/01/29 08:30:51;;;;;;;20.37;14.47;;;-0.10;89.20;;;;;;6214178;28;20209;-64
2023/01/29 08:33:54;;;;;;;18.77;12.73;;;0.00;88.20;;;;;;6211005;28;20238;-64
2023/01/29 08:36:54;;;;;;;18.30;12.37;;;0.00;88.00;;;;;;6222556;28;20184;-64
2023/01/29 08:39:55;;;;;;;19.70;14.33;;;0.00;87.90;;;;;;6226919;28;20187;-64
2023/01/29 08:43:00;;;;;;;18.37;12.33;;;0.00;87.80;;;;;;6216840;28;20187;-64
2023/01/29 08:46:03;;;;;;;20.87;15.03;;;0.00;87.90;;;;;;6220181;28;20194;-64
2023/01/29 08:49:03;;;;;;;17.97;12.40;;;0.10;87.70;;;;;;6215323;28;20198;-64
2023/01/29 08:52:04;;;;;;;20.47;13.03;;;0.10;87.20;;;;;;6208121;28;20195;-64
2023/01/29 08:55:05;;;;;;;19.40;13.07;;;0.20;87.60;;;;;;6241048;28;20221;-64
2023/01/29 08:58:09;;;;;;;19.13;11.83;;;0.20;87.50;;;;;;6214785;28;20213;-64
2023/01/29 09:01:13;;;;;;;18.67;13.00;;;0.30;87.50;;;;;;6228791;28;20191;-64
2023/01/29 09:04:14;;;;;;;16.17;11.37;;;0.40;87.10;;;;;;6229874;28;20194;-63
2023/01/29 09:07:15;;;;;;;14.73;10.80;;;0.40;87.20;;;;;;6212523;28;20277;-64
2023/01/29 09:10:16;;;;;;;15.70;10.63;;;0.50;86.70;;;;;;6208764;28;20202;-64
2023/01/29 09:13:16;;;;;;;17.00;12.37;;;0.50;86.20;;;;;;6234998;28;20208;-64
2023/01/29 09:16:17;;;;;;;15.50;11.33;;;0.50;85.60;;;;;;6208193;28;20241;-64
2023/01/29 09:19:18;;;;;;;15.80;12.40;;;0.50;85.30;;;;;;6201868;28;20187;-64
2023/01/29 09:22:19;;;;;;;16.73;11.60;;;0.50;85.70;;;;;;6207457;28;20190;-64
2023/01/29 09:25:20;;;;;;;17.53;12.30;;;0.40;85.60;;;;;;6210099;28;20259;-64
2023/01/29 09:28:20;;;;;;;15.37;11.07;;;0.50;85.90;;;;;;6219172;28;20194;-64
2023/01/29 09:31:21;;;;;;;13.87;10.90;;;0.50;84.80;;;;;;6208009;28;20193;-64
2023/01/29 09:34:22;;;;;;;15.77;12.00;;;0.50;86.00;;;;;;6206853;28;20254;-64
2023/01/29 09:37:22;;;;;;;13.27;10.90;;;0.60;84.70;;;;;;6209469;28;20187;-64
2023/01/29 09:40:50;;;;;;;12.57;9.87;;;0.70;84.40;;;;;;6239382;28;20184;-64
2023/01/29 09:44:03;;;;;;;12.43;9.20;;;0.80;83.30;;;;;;6210608;28;20210;-64
2023/01/29 09:47:10;;;;;;;12.20;9.37;;;0.80;80.00;;;;;;6223404;28;20188;-64
2023/01/29 09:50:19;;;;;;;17.60;10.80;;;0.70;80.20;;;;;;6223782;28;20247;-64
2023/01/29 09:53:20;;;;;;;14.43;10.33;;;0.80;80.50;;;;;;6235026;28;20265;-64
2023/01/29 09:56:27;;;;;;;15.37;10.40;;;0.80;80.20;;;;;;6225234;28;20209;-64
2023/01/29 09:59:30;;;;;;;13.57;9.33;;;0.80;80.20;;;;;;6209681;28;20214;-64
2023/01/29 10:02:47;;;;;;;14.03;10.20;;;0.80;79.80;;;;;;6246630;28;20206;-64
2023/01/29 10:06:10;;;;;;;12.40;9.23;;;0.80;80.00;;;;;;6257441;28;20676;-64
2023/01/29 10:09:39;;;;;;;11.30;8.50;;;0.80;81.20;;;;;;6234088;28;20270;-64
2023/01/29 10:12:50;;;;;;;12.50;9.70;;;0.80;81.50;;;;;;6224302;28;20183;-64
2023/01/29 10:16:25;;;;;;;14.00;10.67;;;1.00;81.90;;;;;;6227140;28;20225;-64
2023/01/29 10:19:44;;;;;;;15.80;11.40;;;1.00;81.40;;;;;;6237805;28;20183;-64
2023/01/29 10:22:53;;;;;;;13.77;10.30;;;1.00;81.20;;;;;;6226882;28;20263;-64
2023/01/29 10:25:54;;;;;;;12.13;9.80;;;1.10;82.00;;;;;;6231686;28;20179;-64
2023/01/29 10:28:58;;;;;;;14.13;11.10;;;1.20;82.10;;;;;;6218353;28;20194;-64
2023/01/29 10:32:03;;;;;;;12.03;9.17;;;1.40;81.10;;;;;;6218274;28;20194;-64
2023/01/29 10:35:20;;;;;;;11.87;8.87;;;1.40;81.10;;;;;;6228129;28;20207;-64
2023/01/29 10:38:44;;;;;;;12.07;9.57;;;1.60;79.50;;;;;;6226424;28;20192;-64
2023/01/29 10:42:04;;;;;;;14.90;10.37;;;1.60;77.40;;;;;;6223262;28;20184;-64
2023/01/29 10:45:05;;;;;;;13.90;10.93;;;1.60;78.60;;;;;;6253260;28;20198;-64
2023/01/29 10:48:05;;;;;;;11.73;9.53;;;1.40;78.00;;;;;;6222696;28;20182;-64
2023/01/29 10:51:25;;;;;;;13.20;9.73;;;1.40;78.90;;;;;;6240373;28;20202;-64
2023/01/29 10:54:35;;;;;;;10.70;9.37;;;1.40;79.70;;;;;;6222370;28;20322;-62
2023/01/29 10:58:06;;;;;;;15.30;11.53;;;1.40;79.50;;;;;;6222607;28;20180;-62
2023/01/29 11:01:09;;;;;;;13.50;9.60;;;1.50;77.40;;;;;;6223743;28;20187;-62
2023/01/29 11:04:11;;;;;;;15.27;9.83;;;1.60;79.20;;;;;;6238466;28;20262;-62
2023/01/29 11:07:15;;;;;;;14.13;10.30;;;1.70;80.50;;;;;;6206387;28;20191;-62
2023/01/29 11:10:20;;;;;;;13.57;9.63;;;1.80;80.20;;;;;;6221383;28;20184;-63
2023/01/29 11:13:25;;;;;;;12.10;9.57;;;1.90;76.70;;;;;;6220018;28;20278;-63
2023/01/29 11:16:29;;;;;;;14.00;10.70;;;1.80;77.30;;;;;;6222172;28;20215;-62
2023/01/29 11:19:42;;;;;;;13.03;9.70;;;2.00;78.10;;;;;;6222969;28;20275;-62
2023/01/29 11:22:53;;;;;;;12.60;8.60;;;2.10;77.90;;;;;;6221324;28;20172;-62
2023/01/29 11:25:56;;;;;;;10.70;8.80;;;2.30;79.10;;;;;;6221418;28;20182;-62
2023/01/29 11:28:57;;;;;;;10.70;7.70;;;2.30;76.20;;;;;;6222274;28;20188;-62
2023/01/29 11:31:59;;;;;;;11.13;8.60;;;2.40;77.20;;;;;;6222403;28;20278;-62
2023/01/29 11:35:20;;;;;;;12.70;10.27;;;2.40;77.00;;;;;;6227728;28;20218;-62
2023/01/29 11:38:27;;;;;;;13.17;11.00;;;2.50;77.10;;;;;;6223178;28;20219;-63
2023/01/29 11:41:28;;;;;;;13.83;11.37;;;2.50;75.30;;;;;;6223923;28;20194;-63
2023/01/29 11:44:28;;;;;;;12.27;9.87;;;2.60;77.30;;;;;;6211902;28;20278;-63
2023/01/29 11:47:29;;;;;;;14.07;10.97;;;2.70;76.70;;;;;;6225036;28;20190;-63
2023/01/29 11:50:32;;;;;;;13.57;10.77;;;2.70;76.90;;;;;;6215464;28;20190;-63
2023/01/29 11:53:48;;;;;;;14.37;9.80;;;2.80;74.40;;;;;;6210809;28;20259;-63
2023/01/29 11:56:50;;;;;;;13.70;10.07;;;2.80;72.80;;;;;;6221847;28;21197;-64
2023/01/29 11:59:53;;;;;;;12.93;10.80;;;2.50;74.10;;;;;;6213557;28;20201;-63
2023/01/29 12:03:15;;;;;;;12.17;9.77;;;2.50;75.80;;;;;;6222538;28;20215;-65
2023/01/29 12:06:27;;;;;;;13.67;10.50;;;2.60;75.60;;;;;;6224086;28;20187;-64
2023/01/29 12:09:29;;;;;;;12.77;10.33;;;2.50;76.40;;;;;;6226685;28;20189;-63
2023/01/29 12:12:40;;;;;;;15.10;10.97;;;2.50;78.50;;;;;;6218844;28;20194;-64
2023/01/29 12:15:42;;;;;;;12.07;10.33;;;2.50;75.00;;;;;;6219393;28;20211;-64
2023/01/29 12:18:53;;;;;;;13.10;10.77;;;2.50;75.50;;;;;;6221241;28;20190;-64
2023/01/29 12:22:23;;;;;;;13.00;11.30;;;2.60;77.10;;;;;;6221821;28;20194;-64
2023/01/29 12:25:49;;;;;;;13.70;11.07;;;2.70;78.10;;;;;;6215598;28;20199;-64
2023/01/29 12:29:15;;;;;;;14.10;10.47;;;2.80;76.30;;;;;;6221058;28;20187;-64
2023/01/29 12:32:40;;;;;;;12.20;10.47;;;2.80;71.80;;;;;;6232474;28;20269;-64
2023/01/29 12:35:46;;;;;;;11.43;9.40;;;2.70;76.60;;;;;;6231110;28;20207;-64
2023/01/29 12:38:47;;;;;;;13.33;10.20;;;2.70;72.60;;;;;;6225414;28;20185;-64
2023/01/29 12:42:03;;;;;;;13.27;10.83;;;2.50;73.40;;;;;;6212156;28;20253;-64
2023/01/29 12:45:09;;;;;;;15.23;11.30;;;2.50;74.50;;;;;;6224032;28;20188;-64
2023/01/29 12:48:15;;;;;;;12.47;10.23;;;2.40;75.50;;;;;;6222942;28;20261;-64
2023/01/29 12:51:19;;;;;;;13.30;11.07;;;2.40;74.30;;;;;;6228220;28;20237;-64
2023/01/29 12:54:28;;;;;;;13.40;11.63;;;2.50;73.30;;;;;;6227628;28;20231;-63
2023/01/29 12:57:37;;;;;;;14.30;11.87;;;2.30;73.40;;;;;;6239517;28;20221;-64
2023/01/29 13:00:42;;;;;;;15.03;11.77;;;2.30;73.80;;;;;;6227556;28;20184;-64
2023/01/29 13:03:58;;;;;;;14.30;11.67;;;2.30;74.80;;;;;;6226157;28;20183;-64
2023/01/29 13:07:09;;;;;;;16.83;12.37;;;2.20;76.20;;;;;;6252221;28;20196;-64
2023/01/29 13:10:17;;;;;;;15.13;12.77;;;2.20;74.20;;;;;;6261322;28;20192;-64
2023/01/29 13:13:30;;;;;;;15.20;12.50;;;2.20;76.30;;;;;;6228453;28;20187;-63
2023/01/29 13:16:43;;;;;;;15.50;12.77;;;2.20;75.90;;;;;;6259624;28;20218;-63
2023/01/29 13:19:48;;;;;;;13.70;11.37;;;2.00;76.00;;;;;;6227108;28;20222;-62
2023/01/29 13:22:51;;;;;;;18.03;13.23;;;2.00;76.50;;;;;;6228012;28;20253;-65
2023/01/29 13:25:53;;;;;;;17.10;14.17;;;2.00;78.30;;;;;;6216515;28;20305;-63
2023/01/29 13:28:54;;;;;;;14.97;12.30;;;2.10;78.40;;;;;;6208311;28;20320;-63
2023/01/29 13:31:57;;;;;;;16.30;12.23;;;2.10;79.40;;;;;;6208341;28;20195;-64
2023/01/29 13:35:13;;;;;;;15.00;11.63;;;2.00;77.70;;;;;;6225583;28;20203;-64
2023/01/29 13:38:28;;;;;;;18.17;13.27;;;2.00;79.20;;;;;;6236373;28;20263;-64
2023/01/29 13:41:41;;;;;;;16.23;12.73;;;2.00;79.70;;;;;;6238680;28;20217;-64
2023/01/29 13:44:48;;;;;;;15.63;12.90;;;2.10;75.40;;;;;;6229234;28;20201;-64
2023/01/29 13:47:51;;;;;;;15.07;12.93;;;2.00;75.80;;;;;;6222502;28;20187;-65
2023/01/29 13:50:54;;;;;;;15.10;12.63;;;1.80;77.90;;;;;;6211735;28;20266;-65
2023/01/29 13:54:05;;;;;;;16.37;12.20;;;1.80;79.50;;;;;;6224973;28;20239;-65
2023/01/29 13:57:35;;;;;;;16.50;13.47;;;1.90;76.80;;;;;;6270306;28;20194;-64
2023/01/29 14:00:35;;;;;;;16.20;11.67;;;1.80;78.00;;;;;;6246532;28;20184;-64
2023/01/29 14:03:50;;;;;;;15.90;13.70;;;1.80;78.30;;;;;;6265097;28;20191;-64
2023/01/29 14:06:55;;;;;;;17.63;12.47;;;1.70;78.60;;;;;;6224883;28;20234;-64
2023/01/29 14:10:17;;;;;;;15.23;12.30;;;1.60;77.90;;;;;;6240990;28;20181;-64
2023/01/29 14:13:17;;;;;;;19.00;13.30;;;1.60;76.80;;;;;;6226230;28;20187;-64
2023/01/29 14:16:18;;;;;;;16.10;12.37;;;1.60;75.30;;;;;;6258700;28;20210;-64
2023/01/29 14:19:19;;;;;;;17.53;13.23;;;1.50;77.50;;;;;;6230492;28;20219;-65
2023/01/29 14:22:22;;;;;;;13.83;12.00;;;1.50;77.20;;;;;;6217125;28;20207;-64
2023/01/29 14:25:30;;;;;;;16.13;12.97;;;1.40;78.80;;;;;;6227587;28;20182;-64
2023/01/29 14:28:33;;;;;;;13.97;12.00;;;1.40;80.10;;;;;;6238422;28;20277;-64
2023/01/29 14:31:45;;;;;;;15.93;12.23;;;1.50;78.30;;;;;;6231703;28;20192;-64
2023/01/29 14:34:48;;;;;;;13.87;11.80;;;1.50;79.00;;;;;;6237051;28;20208;-64
2023/01/29 14:38:13;;;;;;;14.07;11.37;;;1.50;78.20;;;;;;6270569;28;20221;-63
2023/01/29 14:41:28;;;;;;;15.07;11.27;;;1.40;78.40;;;;;;6233799;28;20192;-64
2023/01/29 14:44:44;;;;;;;14.40;11.97;;;1.40;77.80;;;;;;6226709;28;20192;-64
2023/01/29 14:47:48;;;;;;;15.77;11.67;;;1.40;77.50;;;;;;6218062;28;20187;-64
2023/01/29 14:50:53;;;;;;;15.03;12.07;;;1.40;77.80;;;;;;6246217;28;20285;-64
2023/01/29 14:54:00;;;;;;;14.83;10.87;;;1.40;77.90;;;;;;6241988;28;20283;-64
2023/01/29 14:57:05;;;;;;;15.73;11.50;;;1.30;76.70;;;;;;6259474;28;20261;-64
2023/01/29 15:00:25;;;;;;;16.60;12.13;;;1.20;78.20;;;;;;6241987;28;20250;-64
2023/01/29 15:03:52;;;;;;;15.97;12.83;;;1.20;80.30;;;;;;6223181;28;20209;-64
2023/01/29 15:07:00;;;;;;;15.90;11.57;;;1.20;81.10;;;;;;6235568;28;20216;-67
2023/01/29 15:10:04;;;;;;;14.93;11.60;;;1.40;76.70;;;;;;6241807;28;20179;-65
2023/01/29 15:13:34;;;;;;;15.40;12.00;;;1.40;78.00;;;;;;6266025;28;20247;-64
2023/01/29 15:16:50;;;;;;;16.50;11.80;;;1.20;78.10;;;;;;6264988;28;20220;-64
2023/01/29 15:19:51;;;;;;;14.83;11.23;;;1.10;77.10;;;;;;6233601;28;20219;-64
2023/01/29 15:22:52;;;;;;;17.33;12.03;;;1.10;77.50;;;;;;6230460;28;20197;-64
2023/01/29 15:25:56;;;;;;;19.33;13.57;;;1.10;78.60;;;;;;6241313;28;20194;-65
2023/01/29 15:28:59;;;;;;;16.07;11.97;;;1.10;78.90;;;;;;6225222;28;20191;-64
2023/01/29 15:32:00;;;;;;;14.63;12.40;;;1.00;78.50;;;;;;6218179;28;20183;-65
2023/01/29 15:35:08;;;;;;;17.33;12.70;;;1.10;78.00;;;;;;6257421;28;20217;-64
2023/01/29 15:38:17;;;;;;;14.07;10.87;;;1.00;78.90;;;;;;6223976;28;20191;-64
2023/01/29 15:41:22;;;;;;;15.63;12.50;;;1.00;78.20;;;;;;6225287;28;20192;-63
2023/01/29 15:44:24;;;;;;;14.53;11.90;;;1.00;76.90;;;;;;6237271;28;20191;-64
2023/01/29 15:47:30;;;;;;;17.97;12.50;;;1.00;77.40;;;;;;6215789;28;20187;-64
2023/01/29 15:50:36;;;;;;;18.13;13.60;;;0.80;78.40;;;;;;6231322;28;20191;-64
2023/01/29 15:53:47;;;;;;;16.73;14.20;;;0.80;78.00;;;;;;6236439;28;20257;-64
2023/01/29 15:56:51;;;;;;;16.87;12.27;;;0.80;79.00;;;;;;6224336;28;20207;-64
2023/01/29 15:59:56;;;;;;;18.03;13.60;;;0.80;79.50;;;;;;6230503;28;20337;-64
2023/01/29 16:03:00;;;;;;;19.63;14.37;;;0.80;79.20;;;;;;6225323;28;20190;-64
2023/01/29 16:06:01;;;;;;;18.60;13.30;;;0.80;80.00;;;;;;6213770;28;20261;-64
2023/01/29 16:09:04;;;;;;;16.50;13.53;;;0.80;79.30;;;;;;6220035;28;20214;-64
2023/01/29 16:12:05;;;;;;;14.73;10.80;;;0.80;79.60;;;;;;6234236;28;20206;-64
2023/01/29 16:15:16;;;;;;;15.50;12.40;;;0.80;77.60;;;;;;6212579;28;20317;-64
2023/01/29 16:18:23;;;;;;;15.60;12.13;;;0.80;78.60;;;;;;6231184;28;20192;-67
2023/01/29 16:21:38;;;;;;;16.07;12.37;;;0.80;78.10;;;;;;6223563;28;20195;-66